createdAt,value
2022-09-12T00:00:30.665Z,0
2022-09-12T00:01:46.945Z,0
2022-09-12T00:03:03.231Z,0
2022-09-12T00:04:19.535Z,0
2022-09-12T00:05:35.834Z,0
2022-09-12T00:06:52.126Z,0
2022-09-12T00:08:08.413Z,0
2022-09-12T00:09:23.710Z,0
2022-09-12T00:10:40.008Z,0
2022-09-12T00:11:56.295Z,0
2022-09-12T00:13:12.590Z,0
2022-09-12T00:14:28.882Z,0
2022-09-12T00:15:45.175Z,0
2022-09-12T00:17:01.480Z,0
2022-09-12T00:18:17.762Z,0
2022-09-12T00:19:34.051Z,0
2022-09-12T00:20:50.342Z,0
2022-09-12T00:22:06.640Z,0
2022-09-12T00:23:22.936Z,0
2022-09-12T00:24:39.238Z,0
2022-09-12T00:25:54.536Z,0
2022-09-12T00:27:10.827Z,0
2022-09-12T00:28:27.122Z,0
2022-09-12T00:29:43.418Z,0
2022-09-12T00:30:59.701Z,0
2022-09-12T00:32:16.004Z,0
2022-09-12T00:33:32.296Z,0
2022-09-12T00:34:48.580Z,0
2022-09-12T00:36:04.869Z,0
2022-09-12T00:37:21.173Z,0
2022-09-12T00:38:37.453Z,0
2022-09-12T00:39:53.752Z,0
2022-09-12T00:41:10.055Z,0
2022-09-12T00:42:25.356Z,0
2022-09-12T00:43:41.648Z,0
2022-09-12T00:44:57.946Z,0
2022-09-12T00:46:14.223Z,0
2022-09-12T00:47:30.521Z,0
2022-09-12T00:48:46.824Z,0
2022-09-12T00:50:02.126Z,0
2022-09-12T00:51:18.424Z,0
2022-09-12T00:52:34.706Z,0
2022-09-12T00:53:51.012Z,0
2022-09-12T00:55:07.302Z,0
2022-09-12T00:56:23.587Z,0
2022-09-12T00:57:39.889Z,0
2022-09-12T00:58:56.177Z,0
2022-09-12T01:00:12.465Z,0
2022-09-12T01:01:28.759Z,0
2022-09-12T01:02:45.063Z,0
2022-09-12T01:04:01.354Z,0
2022-09-12T01:05:17.633Z,0
2022-09-12T01:06:32.941Z,0
2022-09-12T01:07:49.237Z,0
2022-09-12T01:09:05.532Z,0
2022-09-12T01:10:21.833Z,0
2022-09-12T01:11:38.120Z,0
2022-09-12T01:12:54.405Z,0
2022-09-12T01:14:10.705Z,0
2022-09-12T01:15:27.001Z,0
2022-09-12T01:16:43.286Z,0
2022-09-12T01:17:59.587Z,0
2022-09-12T01:19:15.877Z,0
2022-09-12T01:20:32.159Z,0
2022-09-12T01:21:48.448Z,0
2022-09-12T01:23:03.775Z,0
2022-09-12T01:24:20.057Z,0
2022-09-12T01:25:36.341Z,0
2022-09-12T01:26:52.633Z,0
2022-09-12T01:28:08.929Z,0
2022-09-12T01:29:25.226Z,0
2022-09-12T01:30:41.529Z,0
2022-09-12T01:31:57.811Z,0
2022-09-12T01:33:14.109Z,0
2022-09-12T01:34:30.402Z,0
2022-09-12T01:35:46.695Z,0
2022-09-12T01:37:02.991Z,0
2022-09-12T01:38:19.281Z,0
2022-09-12T01:39:34.581Z,0
2022-09-12T01:40:50.873Z,0
2022-09-12T01:42:07.173Z,0
2022-09-12T01:43:23.452Z,0
2022-09-12T01:44:39.744Z,0
2022-09-12T01:45:56.053Z,0
2022-09-12T01:47:12.337Z,0
2022-09-12T01:48:28.640Z,0
2022-09-12T01:49:44.924Z,0
2022-09-12T01:51:01.210Z,0
2022-09-12T01:52:17.510Z,0
2022-09-12T01:53:33.799Z,0
2022-09-12T01:54:50.085Z,0
2022-09-12T01:56:05.412Z,0
2022-09-12T01:57:21.686Z,0
2022-09-12T01:58:37.978Z,0
2022-09-12T01:59:54.287Z,0
2022-09-12T02:01:10.582Z,0
2022-09-12T02:02:26.870Z,0
2022-09-12T02:03:43.158Z,0
2022-09-12T02:04:59.450Z,0
2022-09-12T02:06:15.731Z,0
2022-09-12T02:07:32.040Z,0
2022-09-12T02:08:48.328Z,0
2022-09-12T02:10:04.622Z,0
2022-09-12T02:11:20.900Z,0
2022-09-12T02:12:36.210Z,0
2022-09-12T02:13:52.520Z,0
2022-09-12T02:15:08.802Z,0
2022-09-12T02:16:25.105Z,0
2022-09-12T02:17:41.381Z,0
2022-09-12T02:18:57.674Z,0
2022-09-12T02:20:13.976Z,0
2022-09-12T02:21:30.263Z,0
2022-09-12T02:22:46.567Z,0
2022-09-12T02:24:02.847Z,0
2022-09-12T02:25:19.140Z,0
2022-09-12T02:26:35.443Z,0
2022-09-12T02:27:51.721Z,0
2022-09-12T02:29:07.031Z,0
2022-09-12T02:30:23.332Z,0
2022-09-12T02:31:39.618Z,0
2022-09-12T02:32:55.924Z,0
2022-09-12T02:34:12.212Z,0
2022-09-12T02:35:28.500Z,0
2022-09-12T02:36:44.788Z,0
2022-09-12T02:38:01.093Z,0
2022-09-12T02:39:17.369Z,0
2022-09-12T02:40:33.678Z,0
2022-09-12T02:41:49.960Z,0
2022-09-12T02:43:06.247Z,0
2022-09-12T02:44:22.544Z,0
2022-09-12T02:45:37.864Z,0
2022-09-12T02:46:54.154Z,0
2022-09-12T02:48:10.432Z,0
2022-09-12T02:49:26.742Z,0
2022-09-12T02:50:43.018Z,0
2022-09-12T02:51:59.323Z,0
2022-09-12T02:53:15.604Z,0
2022-09-12T02:54:31.908Z,0
2022-09-12T02:55:48.202Z,0
2022-09-12T02:57:04.484Z,0
2022-09-12T02:58:20.789Z,0
2022-09-12T02:59:37.076Z,0
2022-09-12T03:00:53.364Z,0
2022-09-12T03:02:08.664Z,0
2022-09-12T03:03:24.967Z,0
2022-09-12T03:04:41.252Z,0
2022-09-12T03:05:57.560Z,0
2022-09-12T03:07:13.852Z,0
2022-09-12T03:08:30.144Z,0
2022-09-12T03:09:46.425Z,0
2022-09-12T03:11:02.712Z,0
2022-09-12T03:12:19.004Z,0
2022-09-12T03:13:35.307Z,0
2022-09-12T03:14:51.603Z,0
2022-09-12T03:16:07.892Z,0
2022-09-12T03:17:24.187Z,0
2022-09-12T03:18:39.491Z,0
2022-09-12T03:19:55.777Z,0
2022-09-12T03:21:12.088Z,0
2022-09-12T03:22:28.364Z,0
2022-09-12T03:23:44.673Z,0
2022-09-12T03:25:00.961Z,0
2022-09-12T03:26:17.250Z,0
2022-09-12T03:27:33.546Z,0
2022-09-12T03:28:49.835Z,0
2022-09-12T03:30:06.135Z,0
2022-09-12T03:31:22.416Z,0
2022-09-12T03:32:38.710Z,0
2022-09-12T03:33:54.994Z,0
2022-09-12T03:35:10.315Z,0
2022-09-12T03:36:26.600Z,0
2022-09-12T03:37:42.901Z,0
2022-09-12T03:38:59.183Z,0
2022-09-12T03:40:15.487Z,0
2022-09-12T03:41:31.772Z,0
2022-09-12T03:42:48.068Z,0
2022-09-12T03:44:04.371Z,0
2022-09-12T03:45:20.653Z,0
2022-09-12T03:46:36.939Z,0
2022-09-12T03:47:53.231Z,0
2022-09-12T03:49:09.540Z,0
2022-09-12T03:50:25.825Z,0
2022-09-12T03:51:41.122Z,0
2022-09-12T03:52:57.426Z,0
2022-09-12T03:54:13.717Z,0
2022-09-12T03:55:30.018Z,0
2022-09-12T03:56:46.294Z,0
2022-09-12T03:58:02.589Z,0
2022-09-12T03:59:18.894Z,0
2022-09-12T04:00:35.179Z,0
2022-09-12T04:01:51.472Z,0
2022-09-12T04:03:07.756Z,0
2022-09-12T04:04:24.058Z,0
2022-09-12T04:05:40.355Z,0
2022-09-12T04:06:56.648Z,0
2022-09-12T04:08:11.957Z,0
2022-09-12T04:09:28.200Z,1
2022-09-12T04:10:44.480Z,0
2022-09-12T04:12:00.739Z,1
2022-09-12T04:13:16.963Z,1
2022-09-12T04:14:33.215Z,2
2022-09-12T04:15:49.462Z,1
2022-09-12T04:17:05.699Z,1
2022-09-12T04:18:21.938Z,1
2022-09-12T04:19:38.180Z,1
2022-09-12T04:20:54.402Z,5
2022-09-12T04:22:10.655Z,3
2022-09-12T04:23:26.889Z,4
2022-09-12T04:24:42.135Z,2
2022-09-12T04:25:58.373Z,6
2022-09-12T04:27:14.622Z,6
2022-09-12T04:28:30.860Z,9
2022-09-12T04:29:47.098Z,10
2022-09-12T04:31:03.348Z,11
2022-09-12T04:32:19.582Z,25
2022-09-12T04:33:35.817Z,26
2022-09-12T04:34:52.060Z,27
2022-09-12T04:36:08.292Z,33
2022-09-12T04:37:24.531Z,40
2022-09-12T04:38:40.760Z,48
2022-09-12T04:39:57.001Z,55
2022-09-12T04:41:12.269Z,62
2022-09-12T04:42:28.491Z,69
2022-09-12T04:43:44.746Z,78
2022-09-12T04:45:00.984Z,81
2022-09-12T04:46:17.217Z,88
2022-09-12T04:47:33.462Z,103
2022-09-12T04:48:49.696Z,108
2022-09-12T04:50:05.927Z,112
2022-09-12T04:51:22.171Z,125
2022-09-12T04:52:38.411Z,132
2022-09-12T04:53:54.637Z,141
2022-09-12T04:55:10.888Z,147
2022-09-12T04:56:27.135Z,148
2022-09-12T04:57:42.387Z,154
2022-09-12T04:58:58.623Z,151
2022-09-12T05:00:14.849Z,156
2022-09-12T05:01:31.086Z,162
2022-09-12T05:02:47.324Z,161
2022-09-12T05:04:03.580Z,167
2022-09-12T05:05:18.837Z,173
2022-09-12T05:06:35.062Z,186
2022-09-12T05:09:07.555Z,200
2022-09-12T05:10:23.788Z,196
2022-09-12T05:11:40.027Z,201
2022-09-12T05:12:56.274Z,205
2022-09-12T05:14:12.508Z,212
2022-09-12T05:15:28.744Z,223
2022-09-12T05:16:44.984Z,227
2022-09-12T05:18:01.214Z,229
2022-09-12T05:19:17.460Z,250
2022-09-12T05:20:33.707Z,273
2022-09-12T05:21:48.958Z,297
2022-09-12T05:23:05.186Z,307
2022-09-12T05:24:21.423Z,320
2022-09-12T05:25:37.671Z,331
2022-09-12T05:26:53.905Z,340
2022-09-12T05:28:10.149Z,341
2022-09-12T05:29:26.374Z,338
2022-09-12T05:30:42.617Z,343
2022-09-12T05:31:58.849Z,351
2022-09-12T05:33:15.090Z,377
2022-09-12T05:34:31.340Z,388
2022-09-12T05:35:47.580Z,411
2022-09-12T05:37:03.803Z,439
2022-09-12T05:38:19.069Z,481
2022-09-12T05:39:35.316Z,522
2022-09-12T05:40:51.547Z,558
2022-09-12T05:42:07.785Z,584
2022-09-12T05:43:24.030Z,614
2022-09-12T05:44:40.257Z,645
2022-09-12T05:45:56.508Z,657
2022-09-12T05:47:12.727Z,679
2022-09-12T05:48:28.983Z,687
2022-09-12T05:49:45.220Z,703
2022-09-12T05:51:01.444Z,714
2022-09-12T05:52:17.691Z,728
2022-09-12T05:53:33.936Z,764
2022-09-12T05:54:49.176Z,850
2022-09-12T05:56:05.423Z,931
2022-09-12T05:57:21.671Z,962
2022-09-12T05:58:37.905Z,955
2022-09-12T05:59:54.142Z,935
2022-09-12T06:01:10.383Z,953
2022-09-12T06:02:26.607Z,962
2022-09-12T06:03:42.847Z,987
2022-09-12T06:04:59.091Z,989
2022-09-12T06:06:15.328Z,983
2022-09-12T06:07:31.567Z,1012
2022-09-12T06:08:47.804Z,1040
2022-09-12T06:10:04.039Z,1054
2022-09-12T06:11:19.304Z,1082
2022-09-12T06:12:35.532Z,1129
2022-09-12T06:13:51.779Z,1151
2022-09-12T06:15:08.008Z,1183
2022-09-12T06:16:24.263Z,1171
2022-09-12T06:17:40.491Z,1243
2022-09-12T06:18:56.725Z,1197
2022-09-12T06:20:12.964Z,1139
2022-09-12T06:21:29.221Z,1296
2022-09-12T06:22:45.452Z,1328
2022-09-12T06:24:01.688Z,1355
2022-09-12T06:25:17.934Z,1441
2022-09-12T06:26:34.165Z,1393
2022-09-12T06:27:49.412Z,1550
2022-09-12T06:29:05.666Z,1590
2022-09-12T06:30:21.889Z,1577
2022-09-12T06:31:38.134Z,1569
2022-09-12T06:32:54.382Z,1636
2022-09-12T06:34:10.608Z,1648
2022-09-12T06:35:26.841Z,1577
2022-09-12T06:36:43.090Z,1531
2022-09-12T06:37:59.332Z,1531
2022-09-12T06:39:15.571Z,1613
2022-09-12T06:40:31.801Z,1717
2022-09-12T06:41:48.000Z,1720
2022-09-12T06:43:04.276Z,1779
2022-09-12T06:44:19.530Z,1735
2022-09-12T06:45:35.777Z,1695
2022-09-12T06:46:52.007Z,1682
2022-09-12T06:48:08.250Z,1708
2022-09-12T06:49:24.486Z,1808
2022-09-12T06:50:40.739Z,1890
2022-09-12T06:51:56.964Z,1866
2022-09-12T06:53:13.200Z,1815
2022-09-12T06:54:29.455Z,1732
2022-09-12T06:55:45.674Z,1656
2022-09-12T06:57:01.914Z,1689
2022-09-12T06:58:18.164Z,1675
2022-09-12T06:59:34.407Z,1716
2022-09-12T07:00:49.660Z,2013
2022-09-12T07:02:05.900Z,1874
2022-09-12T07:03:22.132Z,1760
2022-09-12T07:04:38.372Z,1738
2022-09-12T07:05:54.598Z,1817
2022-09-12T07:07:10.848Z,2096
2022-09-12T07:08:27.085Z,2413
2022-09-12T07:09:43.314Z,2090
2022-09-12T07:10:59.559Z,2380
2022-09-12T07:12:15.802Z,2554
2022-09-12T07:13:32.034Z,2698
2022-09-12T07:14:48.281Z,2688
2022-09-12T07:16:04.506Z,2599
2022-09-12T07:17:19.774Z,2529
2022-09-12T07:18:36.008Z,2502
2022-09-12T07:19:52.250Z,2510
2022-09-12T07:21:08.482Z,2493
2022-09-12T07:22:24.727Z,2367
2022-09-12T07:23:40.963Z,2302
2022-09-12T07:24:57.190Z,2319
2022-09-12T07:26:13.448Z,2426
2022-09-12T07:27:29.674Z,2556
2022-09-12T07:28:45.000Z,2532
2022-09-12T07:30:02.145Z,2364
2022-09-12T07:31:18.384Z,2219
2022-09-12T07:32:34.630Z,2181
2022-09-12T07:33:49.888Z,2104
2022-09-12T07:35:06.125Z,2044
2022-09-12T07:36:22.362Z,1912
2022-09-12T07:37:38.594Z,1876
2022-09-12T07:38:54.836Z,1957
2022-09-12T07:40:11.081Z,2058
2022-09-12T07:41:27.312Z,2120
2022-09-12T07:42:43.551Z,2152
2022-09-12T07:43:59.792Z,2240
2022-09-12T07:45:16.035Z,2275
2022-09-12T07:46:32.266Z,2342
2022-09-12T07:47:48.502Z,2418
2022-09-12T07:49:04.751Z,2466
2022-09-12T07:50:20.005Z,2473
2022-09-12T07:51:36.242Z,2547
2022-09-12T07:52:52.475Z,2627
2022-09-12T07:54:08.724Z,2848
2022-09-12T07:55:24.954Z,3145
2022-09-12T07:56:41.202Z,3429
2022-09-12T07:57:57.434Z,3551
2022-09-12T07:59:13.664Z,3550
2022-09-12T08:00:29.908Z,3603
2022-09-12T08:01:46.146Z,3605
2022-09-12T08:03:02.381Z,3643
2022-09-12T08:04:18.622Z,3898
2022-09-12T08:05:34.855Z,3846
2022-09-12T08:06:50.108Z,4507
2022-09-12T08:08:06.354Z,4494
2022-09-12T08:09:22.589Z,4295
2022-09-12T08:10:38.825Z,3370
2022-09-12T08:11:55.061Z,6455
2022-09-12T08:13:11.303Z,3700
2022-09-12T08:14:27.554Z,5391
2022-09-12T08:15:43.796Z,7254
2022-09-12T08:17:00.017Z,3511
2022-09-12T08:18:16.269Z,6817
2022-09-12T08:19:32.512Z,6705
2022-09-12T08:20:48.736Z,6793
2022-09-12T08:22:04.972Z,6754
2022-09-12T08:23:20.240Z,6681
2022-09-12T08:24:36.473Z,6899
2022-09-12T08:25:52.707Z,7141
2022-09-12T08:27:08.942Z,8425
2022-09-12T08:28:25.182Z,6203
2022-09-12T08:29:41.415Z,11894
2022-09-12T08:30:57.670Z,14516
2022-09-12T08:32:13.905Z,12314
2022-09-12T08:33:30.141Z,12844
2022-09-12T08:34:46.381Z,11373
2022-09-12T08:36:02.623Z,12717
2022-09-12T08:37:18.861Z,11166
2022-09-12T08:38:35.085Z,9647
2022-09-12T08:39:50.358Z,10453
2022-09-12T08:41:06.591Z,11954
2022-09-12T08:42:22.824Z,13785
2022-09-12T08:43:39.065Z,13089
2022-09-12T08:44:55.294Z,10938
2022-09-12T08:46:11.532Z,13481
2022-09-12T08:47:27.770Z,12775
2022-09-12T08:48:44.024Z,14214
2022-09-12T08:50:00.253Z,11969
2022-09-12T08:52:32.729Z,10302
2022-09-12T08:53:48.963Z,13904
2022-09-12T08:55:05.220Z,13164
2022-09-12T08:56:20.470Z,13687
2022-09-12T08:57:36.702Z,12079
2022-09-12T08:58:52.938Z,11816
2022-09-12T09:00:09.175Z,12026
2022-09-12T09:01:25.413Z,13554
2022-09-12T09:02:41.667Z,13517
2022-09-12T09:03:57.893Z,11429
2022-09-12T09:05:14.137Z,9379
2022-09-12T09:06:30.369Z,11683
2022-09-12T09:07:46.614Z,12608
2022-09-12T09:09:02.860Z,14710
2022-09-12T09:10:19.099Z,15672
2022-09-12T09:11:35.330Z,14738
2022-09-12T09:12:50.584Z,13175
2022-09-12T09:14:06.827Z,14152
2022-09-12T09:15:23.056Z,13785
2022-09-12T09:16:39.290Z,14043
2022-09-12T09:17:55.545Z,11441
2022-09-12T09:19:11.778Z,9851
2022-09-12T09:20:27.034Z,10462
2022-09-12T09:21:43.277Z,14325
2022-09-12T09:22:59.505Z,16930
2022-09-12T09:24:15.748Z,17007
2022-09-12T09:25:31.999Z,3572
2022-09-12T09:26:48.224Z,3508
2022-09-12T09:28:04.464Z,2826
2022-09-12T09:29:20.729Z,28399
2022-09-12T09:30:36.954Z,32289
2022-09-12T09:31:53.190Z,27684
2022-09-12T09:33:09.432Z,16274
2022-09-12T09:34:25.676Z,5772
2022-09-12T09:35:41.916Z,21634
2022-09-12T09:36:57.159Z,76613
2022-09-12T09:38:13.405Z,77400
2022-09-12T09:39:29.650Z,77647
2022-09-12T09:40:45.883Z,74136
2022-09-12T09:42:02.125Z,31605
2022-09-12T09:43:18.354Z,5911
2022-09-12T09:44:34.591Z,76564
2022-09-12T09:45:50.835Z,70124
2022-09-12T09:47:07.085Z,25450
2022-09-12T09:48:23.309Z,14203
2022-09-12T09:49:39.549Z,6415
2022-09-12T09:50:55.799Z,23456
2022-09-12T09:52:12.037Z,75801
2022-09-12T09:53:27.288Z,74891
2022-09-12T09:54:43.535Z,74539
2022-09-12T09:55:59.761Z,35939
2022-09-12T09:57:16.009Z,27841
2022-09-12T09:58:32.240Z,21225
2022-09-12T09:59:48.487Z,29690
2022-09-12T10:01:04.714Z,35250
2022-09-12T10:02:20.957Z,21245
2022-09-12T10:03:37.207Z,12404
2022-09-12T10:04:53.427Z,9617
2022-09-12T10:06:09.685Z,74819
2022-09-12T10:07:25.909Z,75307
2022-09-12T10:08:42.148Z,59102
2022-09-12T10:09:57.417Z,79223
2022-09-12T10:11:13.653Z,77379
2022-09-12T10:12:29.891Z,77142
2022-09-12T10:13:46.136Z,76145
2022-09-12T10:15:02.365Z,70923
2022-09-12T10:16:18.614Z,30895
2022-09-12T10:17:34.851Z,20813
2022-09-12T10:18:51.100Z,7307
2022-09-12T10:20:07.330Z,21933
2022-09-12T10:21:23.573Z,72772
2022-09-12T10:22:39.806Z,37715
2022-09-12T10:23:56.035Z,19495
2022-09-12T10:25:12.278Z,31422
2022-09-12T10:26:27.527Z,18293
2022-09-12T10:27:43.774Z,5294
2022-09-12T10:29:00.008Z,5091
2022-09-12T10:30:16.251Z,4777
2022-09-12T10:31:32.486Z,4960
2022-09-12T10:32:48.721Z,4723
2022-09-12T10:34:04.968Z,4974
2022-09-12T10:35:21.214Z,4732
2022-09-12T10:36:37.454Z,4989
2022-09-12T10:37:53.695Z,5261
2022-09-12T10:39:09.913Z,5037
2022-09-12T10:40:26.157Z,4590
2022-09-12T10:41:42.397Z,4453
2022-09-12T10:42:57.660Z,4521
2022-09-12T10:44:13.894Z,4405
2022-09-12T10:45:30.130Z,4571
2022-09-12T10:46:46.373Z,5205
2022-09-12T10:48:02.601Z,5515
2022-09-12T10:49:18.859Z,6291
2022-09-12T10:50:35.097Z,6290
2022-09-12T10:51:51.332Z,5949
2022-09-12T10:53:07.568Z,5930
2022-09-12T10:54:23.803Z,7030
2022-09-12T10:55:40.043Z,7176
2022-09-12T10:56:56.275Z,5831
2022-09-12T10:58:12.521Z,3306
2022-09-12T10:59:27.779Z,20377
2022-09-12T11:00:44.007Z,26432
2022-09-12T11:02:00.262Z,12152
2022-09-12T11:03:16.491Z,8998
2022-09-12T11:04:32.741Z,75851
2022-09-12T11:05:48.980Z,60239
2022-09-12T11:07:05.201Z,9222
2022-09-12T11:08:21.442Z,6930
2022-09-12T11:09:37.676Z,5731
2022-09-12T11:10:53.928Z,4545
2022-09-12T11:12:10.168Z,4606
2022-09-12T11:13:26.403Z,4752
2022-09-12T11:14:42.637Z,4799
2022-09-12T11:15:57.902Z,4435
2022-09-12T11:17:14.142Z,4254
2022-09-12T11:18:30.378Z,4557
2022-09-12T11:19:46.601Z,4687
2022-09-12T11:21:02.843Z,5416
2022-09-12T11:22:19.090Z,4573
2022-09-12T11:23:35.315Z,3917
2022-09-12T11:24:51.560Z,3566
2022-09-12T11:26:07.798Z,3660
2022-09-12T11:27:24.041Z,3812
2022-09-12T11:28:40.278Z,3434
2022-09-12T11:29:56.514Z,3834
2022-09-12T11:31:12.758Z,2918
2022-09-12T11:32:28.003Z,26869
2022-09-12T11:33:44.254Z,30562
2022-09-12T11:35:00.483Z,25056
2022-09-12T11:36:16.719Z,25858
2022-09-12T11:37:32.967Z,24665
2022-09-12T11:38:49.212Z,25870
2022-09-12T11:40:05.447Z,18771
2022-09-12T11:41:21.674Z,10824
2022-09-12T11:42:37.924Z,13877
2022-09-12T11:43:54.147Z,20416
2022-09-12T11:45:10.397Z,19661
2022-09-12T11:46:26.639Z,14523
2022-09-12T11:47:42.896Z,9648
2022-09-12T11:48:59.133Z,7976
2022-09-12T11:50:15.367Z,8872
2022-09-12T11:51:31.614Z,7866
2022-09-12T11:52:46.871Z,6520
2022-09-12T11:54:03.102Z,5955
2022-09-12T11:55:19.339Z,4226
2022-09-12T11:56:35.586Z,9032
2022-09-12T11:57:51.807Z,6579
2022-09-12T11:59:08.056Z,5428
2022-09-12T12:00:24.296Z,4994
2022-09-12T12:01:40.539Z,5250
2022-09-12T12:02:56.780Z,5318
2022-09-12T12:04:13.007Z,5718
2022-09-12T12:05:29.239Z,6194
2022-09-12T12:06:45.483Z,7326
2022-09-12T12:08:01.734Z,5343
2022-09-12T12:09:16.972Z,2978
2022-09-12T12:10:33.222Z,21951
2022-09-12T12:11:49.453Z,8550
2022-09-12T12:13:05.683Z,26791
2022-09-12T12:14:21.938Z,14176
2022-09-12T12:15:38.163Z,3650
2022-09-12T12:16:54.417Z,17126
2022-09-12T12:18:10.653Z,30798
2022-09-12T12:19:26.875Z,9932
2022-09-12T12:20:43.134Z,25973
2022-09-12T12:21:59.358Z,23748
2022-09-12T12:23:15.605Z,27643
2022-09-12T12:24:31.829Z,18856
2022-09-12T12:25:47.088Z,4128
2022-09-12T12:27:03.334Z,3231
2022-09-12T12:28:19.562Z,2942
2022-09-12T12:29:35.800Z,2770
2022-09-12T12:30:52.041Z,2806
2022-09-12T12:32:08.283Z,2820
2022-09-12T12:33:24.515Z,2787
2022-09-12T12:34:40.761Z,2895
2022-09-12T12:35:56.996Z,2810
2022-09-12T12:37:13.244Z,2934
2022-09-12T12:38:29.487Z,3079
2022-09-12T12:39:45.706Z,3095
2022-09-12T12:41:01.946Z,3808
2022-09-12T12:42:17.212Z,1707
2022-09-12T12:43:33.453Z,9576
2022-09-12T12:44:49.692Z,12153
2022-09-12T12:46:05.923Z,5011
2022-09-12T12:47:22.164Z,5515
2022-09-12T12:48:38.404Z,12747
2022-09-12T12:49:54.644Z,11753
2022-09-12T12:51:10.881Z,11658
2022-09-12T12:52:27.116Z,13853
2022-09-12T12:53:43.345Z,15820
2022-09-12T12:54:59.591Z,12323
2022-09-12T12:56:15.835Z,11410
2022-09-12T12:57:32.065Z,6397
2022-09-12T12:58:48.298Z,12319
2022-09-12T13:00:04.544Z,11736
2022-09-12T13:01:19.793Z,11317
2022-09-12T13:02:36.033Z,12242
2022-09-12T13:03:52.284Z,8850
2022-09-12T13:05:08.510Z,10652
2022-09-12T13:06:24.764Z,11252
2022-09-12T13:07:41.005Z,12716
2022-09-12T13:08:57.224Z,11935
2022-09-12T13:10:13.464Z,14756
2022-09-12T13:11:29.717Z,12900
2022-09-12T13:12:45.954Z,11086
2022-09-12T13:14:02.177Z,11619
2022-09-12T13:15:18.426Z,9051
2022-09-12T13:16:34.672Z,14668
2022-09-12T13:17:49.913Z,11595
2022-09-12T13:19:06.164Z,13149
2022-09-12T13:20:22.391Z,16423
2022-09-12T13:21:38.646Z,9124
2022-09-12T13:22:54.882Z,13433
2022-09-12T13:24:11.115Z,15267
2022-09-12T13:25:27.343Z,15783
2022-09-12T13:26:43.582Z,15988
2022-09-12T13:27:59.827Z,10451
2022-09-12T13:29:16.071Z,10456
2022-09-12T13:30:32.314Z,14132
2022-09-12T13:31:48.547Z,9747
2022-09-12T13:33:04.788Z,14839
2022-09-12T13:34:20.033Z,15066
2022-09-12T13:35:35.289Z,8435
2022-09-12T13:36:51.539Z,9303
2022-09-12T13:38:07.764Z,12887
2022-09-12T13:39:24.012Z,12906
2022-09-12T13:40:40.259Z,12829
2022-09-12T13:41:56.485Z,10269
2022-09-12T13:43:12.722Z,6581
2022-09-12T13:45:45.194Z,5688
2022-09-12T13:47:01.450Z,5453
2022-09-12T13:48:17.691Z,5414
2022-09-12T13:49:33.923Z,4675
2022-09-12T13:50:50.157Z,4901
2022-09-12T13:52:05.407Z,8591
2022-09-12T13:53:21.643Z,7490
2022-09-12T13:54:37.889Z,9369
2022-09-12T13:58:26.614Z,8946
2022-09-12T13:59:42.833Z,5752
2022-09-12T14:00:59.088Z,8102
2022-09-12T14:02:15.330Z,7876
2022-09-12T14:03:31.564Z,6690
2022-09-12T14:04:47.795Z,4524
2022-09-12T14:06:04.039Z,5493
2022-09-12T14:07:20.266Z,5806
2022-09-12T14:08:35.533Z,4725
2022-09-12T14:09:51.766Z,4540
2022-09-12T14:11:08.000Z,4422
2022-09-12T14:12:24.240Z,4633
2022-09-12T14:13:40.489Z,4171
2022-09-12T14:14:56.711Z,3985
2022-09-12T14:16:12.964Z,3832
2022-09-12T14:17:29.192Z,3910
2022-09-12T14:18:45.438Z,3709
2022-09-12T14:20:01.682Z,3548
2022-09-12T14:21:17.904Z,3345
2022-09-12T14:22:34.157Z,3410
2022-09-12T14:23:50.396Z,3498
2022-09-12T14:25:05.637Z,3631
2022-09-12T14:26:21.871Z,3299
2022-09-12T14:28:54.365Z,3274
2022-09-12T14:30:10.591Z,3225
2022-09-12T14:31:26.830Z,2954
2022-09-12T14:32:43.069Z,2980
2022-09-12T14:33:59.304Z,2856
2022-09-12T14:35:15.543Z,2615
2022-09-12T14:36:31.793Z,2691
2022-09-12T14:37:48.024Z,2644
2022-09-12T14:39:04.263Z,2656
2022-09-12T14:40:20.491Z,2517
2022-09-12T14:41:35.763Z,2428
2022-09-12T14:42:52.003Z,2368
2022-09-12T14:44:08.233Z,2387
2022-09-12T14:45:24.466Z,2283
2022-09-12T14:46:40.705Z,2157
2022-09-12T14:47:56.947Z,2152
2022-09-12T14:49:13.184Z,2103
2022-09-12T14:50:29.412Z,2027
2022-09-12T14:51:45.655Z,2014
2022-09-12T14:53:01.900Z,1967
2022-09-12T14:54:18.133Z,1958
2022-09-12T14:55:34.368Z,1980
2022-09-12T14:56:50.621Z,1965
2022-09-12T14:58:05.861Z,1949
2022-09-12T14:59:22.108Z,1969
2022-09-12T15:00:38.351Z,1981
2022-09-12T15:01:54.577Z,1973
2022-09-12T15:03:10.831Z,1967
2022-09-12T15:04:27.064Z,1945
2022-09-12T15:05:43.292Z,1946
2022-09-12T15:06:59.527Z,1934
2022-09-12T15:08:15.781Z,1911
2022-09-12T15:09:32.015Z,1884
2022-09-12T15:10:48.241Z,1866
2022-09-12T15:12:04.487Z,1842
2022-09-12T15:13:20.729Z,1831
2022-09-12T15:14:35.983Z,1810
2022-09-12T15:15:52.218Z,1799
2022-09-12T15:17:08.448Z,1779
2022-09-12T15:18:24.700Z,1774
2022-09-12T15:19:40.930Z,1749
2022-09-12T15:20:57.166Z,1731
2022-09-12T15:22:13.406Z,1695
2022-09-12T15:23:29.638Z,1655
2022-09-12T15:24:45.878Z,1628
2022-09-12T15:26:02.120Z,1593
2022-09-12T15:27:18.367Z,1559
2022-09-12T15:28:34.605Z,1530
2022-09-12T15:29:50.837Z,1501
2022-09-12T15:31:06.083Z,1473
2022-09-12T15:32:22.321Z,1428
2022-09-12T15:33:38.576Z,1404
2022-09-12T15:34:54.796Z,1378
2022-09-12T15:36:11.050Z,1372
2022-09-12T15:37:27.291Z,1343
2022-09-12T15:38:43.509Z,1320
2022-09-12T15:39:59.764Z,1296
2022-09-12T15:41:16.002Z,1269
2022-09-12T15:42:32.240Z,1244
2022-09-12T15:43:48.484Z,1203
2022-09-12T15:45:04.701Z,1174
2022-09-12T15:46:20.947Z,1154
2022-09-12T15:47:36.197Z,1125
2022-09-12T15:48:52.439Z,1107
2022-09-12T15:50:08.670Z,1070
2022-09-12T15:51:24.924Z,1047
2022-09-12T15:52:41.157Z,1022
2022-09-12T15:53:57.398Z,992
2022-09-12T15:55:13.627Z,974
2022-09-12T15:56:29.865Z,956
2022-09-12T15:57:46.114Z,934
2022-09-12T15:59:02.350Z,916
2022-09-12T16:00:18.590Z,899
2022-09-12T16:01:34.822Z,883
2022-09-12T16:02:51.055Z,872
2022-09-12T16:04:06.308Z,856
2022-09-12T16:05:22.565Z,843
2022-09-12T16:06:38.799Z,829
2022-09-12T16:07:55.029Z,822
2022-09-12T16:09:11.268Z,809
2022-09-12T16:10:27.500Z,793
2022-09-12T16:11:43.753Z,784
2022-09-12T16:12:59.975Z,769
2022-09-12T16:14:16.222Z,766
2022-09-12T16:15:32.462Z,750
2022-09-12T16:16:48.699Z,737
2022-09-12T16:18:04.934Z,732
2022-09-12T16:19:21.172Z,711
2022-09-12T16:20:36.437Z,694
2022-09-12T16:21:52.660Z,685
2022-09-12T16:23:08.909Z,723
2022-09-12T16:24:25.000Z,720
2022-09-12T16:25:41.389Z,754
2022-09-12T16:26:57.613Z,779
2022-09-12T16:28:13.857Z,760
2022-09-12T16:29:30.096Z,725
2022-09-12T16:30:46.339Z,695
2022-09-12T16:32:02.579Z,673
2022-09-12T16:33:18.819Z,601
2022-09-12T16:34:35.052Z,512
2022-09-12T16:35:51.283Z,744
2022-09-12T16:37:06.533Z,757
2022-09-12T16:38:22.786Z,721
2022-09-12T16:39:39.015Z,701
2022-09-12T16:40:55.250Z,658
2022-09-12T16:42:11.503Z,686
2022-09-12T16:43:27.736Z,663
2022-09-12T16:44:43.969Z,707
2022-09-12T16:46:00.216Z,718
2022-09-12T16:47:16.456Z,715
2022-09-12T16:48:32.693Z,715
2022-09-12T16:49:48.931Z,752
2022-09-12T16:51:05.155Z,778
2022-09-12T16:52:21.396Z,769
2022-09-12T16:53:36.648Z,740
2022-09-12T16:54:52.898Z,741
2022-09-12T16:56:09.127Z,722
2022-09-12T16:57:25.368Z,696
2022-09-12T16:58:41.000Z,688
2022-09-12T16:59:57.843Z,688
2022-09-12T17:01:14.092Z,698
2022-09-12T17:02:30.319Z,673
2022-09-12T17:03:46.563Z,620
2022-09-12T17:05:02.799Z,574
2022-09-12T17:06:19.038Z,525
2022-09-12T17:07:35.275Z,488
2022-09-12T17:08:51.508Z,453
2022-09-12T17:10:06.760Z,418
2022-09-12T17:11:23.013Z,385
2022-09-12T17:12:39.249Z,353
2022-09-12T17:13:55.492Z,321
2022-09-12T17:15:11.715Z,291
2022-09-12T17:16:27.954Z,267
2022-09-12T17:17:44.209Z,238
2022-09-12T17:19:00.440Z,216
2022-09-12T17:20:16.686Z,194
2022-09-12T17:21:32.909Z,174
2022-09-12T17:22:49.159Z,155
2022-09-12T17:24:05.384Z,137
2022-09-12T17:25:21.632Z,119
2022-09-12T17:26:36.886Z,104
2022-09-12T17:27:53.128Z,93
2022-09-12T17:29:09.360Z,83